Mansfield, Ohio
Current Conditions -  °F | °C
As of 2:52 AM on Tuesday 27 Jan 2015 (Local Time) from KMFD Reporting Station
Haze Haze  
Wind Chill:   Ceiling: 2100
Heat Index: 10°   Visibility: 6mi
Dew Point:   Wind: 6mph
Humidity: 92%   Direction: 300°WNW
Pressure: 29.89"   Gusts: NA
Location:  40.76°N, 82.51°W
Report Text: KMFD 270752Z AUTO 30005KT 6SM BR OVC021 M12/M13 A2989 RMK AO2 SLP145 T11221133
Loading
Personal Weather Stations






























Interactive Weather Map New forecast layout! Learn more

10-Day Weather Forecast

Advertisements
Track Severe Weather on mobile